Terminal Aerodrome Forecast
Issued by NWS

Home | Current Version | Previous Version | Text Only | Print | Product List | Glossary On
Versions: 1 2 3 4 5 6 7 8 9 10 11 12 13 14
150
FTUS46 KSTO 062107 AAA
TAFSAC
TAF AMD
KSAC 062107Z 0621/0718 20007KT P6SM BKN018 BKN050
     FM070100 18007KT P6SM BKN025 OVC050=

USA.gov is the U.S. government's official web portal to all federal, state and local government web resources and services.